sensor_id;sensor_type;location;lat;lon;timestamp;pressure;altitude;pressure_sealevel;temperature;humidity
63493;BME280;49638;47.526;10.028;2023-02-03T00:02:41;92886.00;;;1.80;89.39
63493;BME280;49638;47.526;10.028;2023-02-03T00:05:42;92879.50;;;1.84;89.25
63493;BME280;49638;47.526;10.028;2023-02-03T00:08:43;92876.56;;;1.87;89.21
63493;BME280;49638;47.526;10.028;2023-02-03T00:11:43;92879.50;;;1.92;89.22
63493;BME280;49638;47.526;10.028;2023-02-03T00:14:43;92838.94;;;1.81;89.28
63493;BME280;49638;47.526;10.028;2023-02-03T00:17:43;92852.75;;;1.90;88.82
63493;BME280;49638;47.526;10.028;2023-02-03T00:20:44;92842.16;;;1.83;88.49
63493;BME280;49638;47.526;10.028;2023-02-03T00:23:44;92856.34;;;1.89;88.71
63493;BME280;49638;47.526;10.028;2023-02-03T00:26:44;92851.31;;;1.96;88.53
63493;BME280;49638;47.526;10.028;2023-02-03T00:29:44;92861.91;;;1.94;88.70
63493;BME280;49638;47.526;10.028;2023-02-03T00:32:45;92876.25;;;1.98;88.78
63493;BME280;49638;47.526;10.028;2023-02-03T00:35:45;92869.72;;;1.94;88.59
63493;BME280;49638;47.526;10.028;2023-02-03T00:38:45;92875.75;;;1.95;88.25
63493;BME280;49638;47.526;10.028;2023-02-03T00:41:46;92866.63;;;1.99;88.74
63493;BME280;49638;47.526;10.028;2023-02-03T00:44:46;92872.66;;;1.91;88.59
63493;BME280;49638;47.526;10.028;2023-02-03T00:47:46;92866.97;;;1.87;88.37
63493;BME280;49638;47.526;10.028;2023-02-03T00:50:46;92873.63;;;1.90;88.36
63493;BME280;49638;47.526;10.028;2023-02-03T00:53:47;92880.44;;;1.83;88.70
63493;BME280;49638;47.526;10.028;2023-02-03T00:56:47;92889.25;;;1.82;88.80
63493;BME280;49638;47.526;10.028;2023-02-03T00:59:50;92891.88;;;1.82;88.78
63493;BME280;49638;47.526;10.028;2023-02-03T01:02:50;92893.34;;;1.84;88.65
63493;BME280;49638;47.526;10.028;2023-02-03T01:05:50;92895.13;;;1.84;88.82
63493;BME280;49638;47.526;10.028;2023-02-03T01:08:51;92890.06;;;1.82;88.82
63493;BME280;49638;47.526;10.028;2023-02-03T01:11:51;92893.34;;;1.84;88.65
63493;BME280;49638;47.526;10.028;2023-02-03T01:14:51;92876.56;;;1.87;88.15
63493;BME280;49638;47.526;10.028;2023-02-03T01:17:52;92876.06;;;1.83;88.16
63493;BME280;49638;47.526;10.028;2023-02-03T01:20:52;92865.13;;;1.80;88.36
63493;BME280;49638;47.526;10.028;2023-02-03T01:23:53;92866.97;;;1.87;88.23
63493;BME280;49638;47.526;10.028;2023-02-03T01:26:53;92862.69;;;1.86;88.10
63493;BME280;49638;47.526;10.028;2023-02-03T01:29:53;92860.41;;;1.83;88.16
63493;BME280;49638;47.526;10.028;2023-02-03T01:32:54;92873.94;;;1.79;88.70
63493;BME280;49638;47.526;10.028;2023-02-03T01:35:54;92874.25;;;1.76;88.41
63493;BME280;49638;47.526;10.028;2023-02-03T01:38:55;92884.69;;;1.76;88.89
63493;BME280;49638;47.526;10.028;2023-02-03T01:41:55;92882.22;;;1.66;88.90
63493;BME280;49638;47.526;10.028;2023-02-03T01:44:55;92897.09;;;1.74;88.97
63493;BME280;49638;47.526;10.028;2023-02-03T01:47:58;92903.25;;;1.73;88.94
63493;BME280;49638;47.526;10.028;2023-02-03T01:51:03;92883.53;;;1.62;89.22
63493;BME280;49638;47.526;10.028;2023-02-03T01:54:05;92903.91;;;1.67;89.43
63493;BME280;49638;47.526;10.028;2023-02-03T01:57:13;92899.16;;;1.62;90.25
63493;BME280;49638;47.526;10.028;2023-02-03T02:00:15;92904.88;;;1.65;89.53
63493;BME280;49638;47.526;10.028;2023-02-03T02:03:17;92927.50;;;1.65;89.58
63493;BME280;49638;47.526;10.028;2023-02-03T02:06:19;92924.09;;;1.64;89.73
63493;BME280;49638;47.526;10.028;2023-02-03T02:09:19;92921.00;;;1.69;89.26
63493;BME280;49638;47.526;10.028;2023-02-03T02:12:19;92915.97;;;1.76;89.06
63493;BME280;49638;47.526;10.028;2023-02-03T02:15:22;92917.94;;;1.74;89.43
63493;BME280;49638;47.526;10.028;2023-02-03T02:28:40;92932.41;;;1.76;89.43
63493;BME280;49638;47.526;10.028;2023-02-03T02:32:14;92906.34;;;1.76;89.13
63493;BME280;49638;47.526;10.028;2023-02-03T02:36:06;92889.91;;;1.76;88.65
63493;BME280;49638;47.526;10.028;2023-02-03T02:38:57;92884.53;;;1.77;88.97
63493;BME280;49638;47.526;10.028;2023-02-03T02:42:07;92866.78;;;1.81;88.50
63493;BME280;49638;47.526;10.028;2023-02-03T02:45:14;92882.09;;;1.84;88.74
63493;BME280;49638;47.526;10.028;2023-02-03T02:48:28;92893.50;;;1.75;88.84
63493;BME280;49638;47.526;10.028;2023-02-03T02:51:31;92896.59;;;1.86;88.67
63493;BME280;49638;47.526;10.028;2023-02-03T02:54:36;92877.38;;;1.87;88.79
63493;BME280;49638;47.526;10.028;2023-02-03T02:57:38;92847.06;;;1.86;88.55
63493;BME280;49638;47.526;10.028;2023-02-03T03:00:39;92856.19;;;1.82;87.99
63493;BME280;49638;47.526;10.028;2023-02-03T03:03:40;92880.44;;;1.83;88.44
63493;BME280;49638;47.526;10.028;2023-02-03T03:06:47;92880.44;;;1.83;88.44
63493;BME280;49638;47.526;10.028;2023-02-03T03:09:52;92876.06;;;1.83;88.56
63493;BME280;49638;47.526;10.028;2023-02-03T03:12:57;92883.88;;;1.75;88.57
63493;BME280;49638;47.526;10.028;2023-02-03T03:16:01;92884.06;;;1.74;88.41
63493;BME280;49638;47.526;10.028;2023-02-03T03:19:09;92882.25;;;1.74;87.67
63493;BME280;49638;47.526;10.028;2023-02-03T03:22:15;92859.59;;;1.75;88.25
63493;BME280;49638;47.526;10.028;2023-02-03T03:25:22;92856.69;;;1.78;88.69
63493;BME280;49638;47.526;10.028;2023-02-03T03:28:29;92839.44;;;1.77;88.61
63493;BME280;49638;47.526;10.028;2023-02-03T03:31:33;92843.78;;;1.76;88.73
63493;BME280;49638;47.526;10.028;2023-02-03T03:34:33;92819.06;;;1.64;89.03
63493;BME280;49638;47.526;10.028;2023-02-03T03:37:37;92822.97;;;1.68;89.34
63493;BME280;49638;47.526;10.028;2023-02-03T03:40:45;92829.78;;;1.61;89.26
63493;BME280;49638;47.526;10.028;2023-02-03T03:43:48;92834.69;;;1.64;88.78
63493;BME280;49638;47.526;10.028;2023-02-03T03:50:32;92873.44;;;1.75;89.00
63493;BME280;49638;47.526;10.028;2023-02-03T03:53:36;92867.25;;;1.76;88.63
63493;BME280;49638;47.526;10.028;2023-02-03T03:56:44;92835.34;;;1.74;88.98
63493;BME280;49638;47.526;10.028;2023-02-03T03:59:47;92802.28;;;1.67;88.62
63493;BME280;49638;47.526;10.028;2023-02-03T04:02:51;92794.78;;;1.72;88.43
63493;BME280;49638;47.526;10.028;2023-02-03T04:05:53;92814.81;;;1.79;88.69
63493;BME280;49638;47.526;10.028;2023-02-03T04:08:53;92828.50;;;1.81;88.28
63493;BME280;49638;47.526;10.028;2023-02-03T04:11:53;92817.91;;;1.83;87.72
63493;BME280;49638;47.526;10.028;2023-02-03T04:15:03;92811.88;;;1.82;88.37
63493;BME280;49638;47.526;10.028;2023-02-03T04:18:04;92795.75;;;1.79;88.62
63493;BME280;49638;47.526;10.028;2023-02-03T04:21:04;92773.75;;;1.73;88.35
63493;BME280;49638;47.526;10.028;2023-02-03T04:24:05;92783.22;;;1.74;88.20
63493;BME280;49638;47.526;10.028;2023-02-03T04:27:05;92805.38;;;1.70;88.50
63493;BME280;49638;47.526;10.028;2023-02-03T04:30:06;92773.13;;;1.71;88.66
63493;BME280;49638;47.526;10.028;2023-02-03T04:33:06;92771.66;;;1.77;88.74
63493;BME280;49638;47.526;10.028;2023-02-03T04:36:07;92776.88;;;1.77;88.52
63493;BME280;49638;47.526;10.028;2023-02-03T04:39:08;92783.22;;;1.74;88.52
63493;BME280;49638;47.526;10.028;2023-02-03T04:42:08;92795.94;;;1.77;88.11
63493;BME280;49638;47.526;10.028;2023-02-03T04:45:09;92808.16;;;1.77;88.44
63493;BME280;49638;47.526;10.028;2023-02-03T04:48:10;92810.09;;;1.75;88.51
63493;BME280;49638;47.526;10.028;2023-02-03T04:51:10;92816.13;;;1.67;88.78
63493;BME280;49638;47.526;10.028;2023-02-03T04:54:10;92834.53;;;1.74;88.97
63493;BME280;49638;47.526;10.028;2023-02-03T04:57:10;92844.13;;;1.73;88.78
63493;BME280;49638;47.526;10.028;2023-02-03T05:00:11;92845.09;;;1.72;88.88
63493;BME280;49638;47.526;10.028;2023-02-03T05:03:12;92852.59;;;1.75;88.69
63493;BME280;49638;47.526;10.028;2023-02-03T05:06:12;92846.06;;;1.63;89.03
63493;BME280;49638;47.526;10.028;2023-02-03T05:09:13;92869.69;;;1.70;88.93
63493;BME280;49638;47.526;10.028;2023-02-03T05:12:14;92877.69;;;1.68;89.04
63493;BME280;49638;47.526;10.028;2023-02-03T05:15:14;92883.38;;;1.72;89.02
63493;BME280;49638;47.526;10.028;2023-02-03T05:18:14;92888.28;;;1.75;88.93
63493;BME280;49638;47.526;10.028;2023-02-03T05:21:14;92882.06;;;1.76;88.30
63493;BME280;49638;47.526;10.028;2023-02-03T05:24:15;92877.38;;;1.71;88.62
63493;BME280;49638;47.526;10.028;2023-02-03T05:27:15;92892.03;;;1.80;88.60
63493;BME280;49638;47.526;10.028;2023-02-03T05:30:15;92883.56;;;1.78;88.66
63493;BME280;49638;47.526;10.028;2023-02-03T05:33:15;92866.44;;;1.76;88.98
63493;BME280;49638;47.526;10.028;2023-02-03T05:36:16;92878.84;;;1.74;89.05
63493;BME280;49638;47.526;10.028;2023-02-03T05:39:16;92883.38;;;1.63;88.69
63493;BME280;49638;47.526;10.028;2023-02-03T05:42:16;92888.09;;;1.68;88.68
63493;BME280;49638;47.526;10.028;2023-02-03T05:45:16;92892.69;;;1.74;88.38
63493;BME280;49638;47.526;10.028;2023-02-03T05:48:17;92913.22;;;1.85;87.59
63493;BME280;49638;47.526;10.028;2023-02-03T05:51:17;92915.50;;;1.88;87.91
63493;BME280;49638;47.526;10.028;2023-02-03T05:54:17;92897.91;;;1.91;87.57
63493;BME280;49638;47.526;10.028;2023-02-03T05:57:18;92891.69;;;1.83;87.54
63493;BME280;49638;47.526;10.028;2023-02-03T06:00:19;92877.84;;;1.83;87.38
63493;BME280;49638;47.526;10.028;2023-02-03T06:03:20;92879.84;;;1.97;87.30
63493;BME280;49638;47.526;10.028;2023-02-03T06:06:20;92861.06;;;1.94;87.32
63493;BME280;49638;47.526;10.028;2023-02-03T06:09:21;92857.34;;;1.88;87.58
63493;BME280;49638;47.526;10.028;2023-02-03T06:12:21;92857.16;;;1.89;87.74
63493;BME280;49638;47.526;10.028;2023-02-03T06:15:21;92870.38;;;1.96;87.01
63493;BME280;49638;47.526;10.028;2023-02-03T06:18:22;92889.91;;;1.92;87.27
63493;BME280;49638;47.526;10.028;2023-02-03T06:21:22;92916.00;;;1.92;87.29
63493;BME280;49638;47.526;10.028;2023-02-03T06:24:22;92901.66;;;1.96;87.26
63493;BME280;49638;47.526;10.028;2023-02-03T06:27:23;92891.84;;;1.90;86.71
63493;BME280;49638;47.526;10.028;2023-02-03T06:30:23;92872.97;;;1.88;86.69
63493;BME280;49638;47.526;10.028;2023-02-03T06:33:23;92876.06;;;1.83;86.67
63493;BME280;49638;47.526;10.028;2023-02-03T06:36:24;92877.22;;;1.81;87.19
63493;BME280;49638;47.526;10.028;2023-02-03T06:39:24;92892.19;;;1.79;87.53
63493;BME280;49638;47.526;10.028;2023-02-03T06:42:24;92898.56;;;1.84;87.02
63493;BME280;49638;47.526;10.028;2023-02-03T06:45:25;92902.47;;;1.80;87.29
63493;BME280;49638;47.526;10.028;2023-02-03T06:48:25;92893.16;;;1.78;87.68
63493;BME280;49638;47.526;10.028;2023-02-03T06:51:25;92899.19;;;1.78;87.35
63493;BME280;49638;47.526;10.028;2023-02-03T06:54:26;92894.31;;;1.75;87.33
63493;BME280;49638;47.526;10.028;2023-02-03T06:57:26;92888.94;;;1.77;87.19
63493;BME280;49638;47.526;10.028;2023-02-03T07:00:26;92891.56;;;1.77;87.31
63493;BME280;49638;47.526;10.028;2023-02-03T07:03:26;92894.63;;;1.72;87.84
63493;BME280;49638;47.526;10.028;2023-02-03T07:06:27;92909.28;;;1.73;87.46
63493;BME280;49638;47.526;10.028;2023-02-03T07:09:28;92900.50;;;1.74;87.55
63493;BME280;49638;47.526;10.028;2023-02-03T07:12:28;92896.41;;;1.80;87.29
63493;BME280;49638;47.526;10.028;2023-02-03T07:15:28;92913.38;;;1.84;86.79
63493;BME280;49638;47.526;10.028;2023-02-03T07:18:29;92920.22;;;1.85;87.31
63493;BME280;49638;47.526;10.028;2023-02-03T07:21:30;92915.16;;;1.83;87.30
63493;BME280;49638;47.526;10.028;2023-02-03T07:24:31;92918.78;;;1.91;87.25
63493;BME280;49638;47.526;10.028;2023-02-03T07:27:31;92917.28;;;1.96;86.69
63493;BME280;49638;47.526;10.028;2023-02-03T07:30:31;92929.53;;;2.04;86.72
63493;BME280;49638;47.526;10.028;2023-02-03T07:33:32;92915.53;;;2.05;86.37
63493;BME280;49638;47.526;10.028;2023-02-03T07:36:32;92920.25;;;2.01;86.09
63493;BME280;49638;47.526;10.028;2023-02-03T07:39:32;92921.69;;;1.96;86.01
63493;BME280;49638;47.526;10.028;2023-02-03T07:42:33;92915.50;;;1.97;86.07
63493;BME280;49638;47.526;10.028;2023-02-03T07:45:33;92915.84;;;2.02;86.38
63493;BME280;49638;47.526;10.028;2023-02-03T07:48:33;92905.72;;;1.99;85.68
63493;BME280;49638;47.526;10.028;2023-02-03T07:51:33;92896.44;;;1.88;84.94
63493;BME280;49638;47.526;10.028;2023-02-03T07:54:34;92908.34;;;1.99;85.11
63493;BME280;49638;47.526;10.028;2023-02-03T07:57:34;92920.56;;;2.15;84.61
63493;BME280;49638;47.526;10.028;2023-02-03T08:00:35;92925.94;;;2.13;84.73
63493;BME280;49638;47.526;10.028;2023-02-03T08:03:35;92921.38;;;2.07;84.51
63493;BME280;49638;47.526;10.028;2023-02-03T08:06:35;92925.31;;;2.11;85.01
63493;BME280;49638;47.526;10.028;2023-02-03T08:09:35;92911.59;;;2.09;85.08
63493;BME280;49638;47.526;10.028;2023-02-03T08:12:36;92904.75;;;2.08;84.94
63493;BME280;49638;47.526;10.028;2023-02-03T08:15:37;92924.31;;;2.12;85.13
63493;BME280;49638;47.526;10.028;2023-02-03T08:18:37;92914.22;;;2.09;84.87
63493;BME280;49638;47.526;10.028;2023-02-03T08:21:37;92917.47;;;2.11;84.67
63493;BME280;49638;47.526;10.028;2023-02-03T08:24:37;92916.81;;;2.17;84.84
63493;BME280;49638;47.526;10.028;2023-02-03T08:27:38;92897.91;;;2.23;84.98
63493;BME280;49638;47.526;10.028;2023-02-03T08:30:39;92897.06;;;2.31;84.00
63493;BME280;49638;47.526;10.028;2023-02-03T08:33:39;92879.50;;;2.25;84.31
63493;BME280;49638;47.526;10.028;2023-02-03T08:36:39;92882.09;;;2.25;83.47
63493;BME280;49638;47.526;10.028;2023-02-03T08:39:40;92895.31;;;2.31;84.21
63493;BME280;49638;47.526;10.028;2023-02-03T08:42:40;92903.59;;;2.43;83.50
63493;BME280;49638;47.526;10.028;2023-02-03T08:45:40;92886.81;;;2.29;83.14
63493;BME280;49638;47.526;10.028;2023-02-03T08:48:41;92902.44;;;2.37;83.25
63493;BME280;49638;47.526;10.028;2023-02-03T08:51:41;92885.19;;;2.45;82.79
63493;BME280;49638;47.526;10.028;2023-02-03T08:54:43;92899.97;;;2.60;82.61
63493;BME280;49638;47.526;10.028;2023-02-03T08:57:43;92901.75;;;2.68;82.10
63493;BME280;49638;47.526;10.028;2023-02-03T09:00:43;92909.91;;;2.73;81.35
63493;BME280;49638;47.526;10.028;2023-02-03T09:03:44;92898.81;;;2.71;81.75
63493;BME280;49638;47.526;10.028;2023-02-03T09:06:45;92902.22;;;2.80;81.38
63493;BME280;49638;47.526;10.028;2023-02-03T09:09:48;92898.97;;;2.86;81.65
63493;BME280;49638;47.526;10.028;2023-02-03T09:12:49;92901.72;;;2.84;81.43
63493;BME280;49638;47.526;10.028;2023-02-03T09:15:49;92891.81;;;2.72;77.73
63493;BME280;49638;47.526;10.028;2023-02-03T09:18:50;92878.78;;;2.72;81.54
63493;BME280;49638;47.526;10.028;2023-02-03T09:21:50;92902.06;;;2.90;79.48
63493;BME280;49638;47.526;10.028;2023-02-03T09:24:50;92900.06;;;2.92;81.26
63493;BME280;49638;47.526;10.028;2023-02-03T09:27:51;92897.25;;;3.01;80.54
63493;BME280;49638;47.526;10.028;2023-02-03T09:30:51;92909.84;;;3.06;79.80
63493;BME280;49638;47.526;10.028;2023-02-03T09:33:51;92921.91;;;3.07;80.47
63493;BME280;49638;47.526;10.028;2023-02-03T09:36:51;92904.09;;;3.11;80.48
63493;BME280;49638;47.526;10.028;2023-02-03T09:39:52;92913.69;;;3.18;80.67
63493;BME280;49638;47.526;10.028;2023-02-03T09:43:30;92903.25;;;3.18;74.61
63493;BME280;49638;47.526;10.028;2023-02-03T09:46:40;92905.84;;;3.26;79.01
63493;BME280;49638;47.526;10.028;2023-02-03T09:49:47;92907.66;;;3.18;78.05
63493;BME280;49638;47.526;10.028;2023-02-03T09:52:50;92916.81;;;3.14;79.97
63493;BME280;49638;47.526;10.028;2023-02-03T09:55:51;92937.88;;;3.12;80.03
63493;BME280;49638;47.526;10.028;2023-02-03T09:58:52;92933.63;;;3.11;76.87
63493;BME280;49638;47.526;10.028;2023-02-03T10:17:59;92946.56;;;3.52;78.08
63493;BME280;49638;47.526;10.028;2023-02-03T10:21:10;92934.81;;;3.48;79.24
63493;BME280;49638;47.526;10.028;2023-02-03T10:24:15;92933.19;;;3.47;78.89
63493;BME280;49638;47.526;10.028;2023-02-03T10:27:20;92941.63;;;3.57;79.26
63493;BME280;49638;47.526;10.028;2023-02-03T10:30:32;92928.56;;;3.57;76.81
63493;BME280;49638;47.526;10.028;2023-02-03T10:33:45;92930.91;;;3.44;76.26
63493;BME280;49638;47.526;10.028;2023-02-03T10:36:56;92908.38;;;3.43;76.73
63493;BME280;49638;47.526;10.028;2023-02-03T10:39:58;92907.06;;;3.47;79.17
63493;BME280;49638;47.526;10.028;2023-02-03T10:42:59;92903.75;;;3.53;78.59
63493;BME280;49638;47.526;10.028;2023-02-03T10:46:28;92893.47;;;3.51;78.94
63493;BME280;49638;47.526;10.028;2023-02-03T10:49:29;92865.88;;;3.49;78.64
63493;BME280;49638;47.526;10.028;2023-02-03T10:52:31;92872.00;;;3.64;77.54
63493;BME280;49638;47.526;10.028;2023-02-03T10:55:33;92865.38;;;3.76;78.03
63493;BME280;49638;47.526;10.028;2023-02-03T10:58:33;92828.06;;;3.60;77.58
63493;BME280;49638;47.526;10.028;2023-02-03T11:01:46;92848.25;;;3.74;75.37
63493;BME280;49638;47.526;10.028;2023-02-03T11:05:07;92843.72;;;3.68;74.63
63493;BME280;49638;47.526;10.028;2023-02-03T11:08:14;92813.25;;;3.52;76.52
63493;BME280;49638;47.526;10.028;2023-02-03T11:11:28;92842.03;;;3.75;75.99
63493;BME280;49638;47.526;10.028;2023-02-03T11:14:36;92838.88;;;3.79;76.30
63493;BME280;49638;47.526;10.028;2023-02-03T11:17:42;92844.44;;;3.76;75.72
63493;BME280;49638;47.526;10.028;2023-02-03T11:20:43;92837.59;;;3.75;77.78
63493;BME280;49638;47.526;10.028;2023-02-03T11:24:23;92845.34;;;3.92;72.89
63493;BME280;49638;47.526;10.028;2023-02-03T11:27:24;92843.41;;;3.86;77.48
63493;BME280;49638;47.526;10.028;2023-02-03T11:30:27;92844.09;;;3.79;74.09
63493;BME280;49638;47.526;10.028;2023-02-03T11:33:31;92853.63;;;3.72;77.18
63493;BME280;49638;47.526;10.028;2023-02-03T11:36:33;92859.00;;;3.79;76.90
63493;BME280;49638;47.526;10.028;2023-02-03T11:39:34;92861.31;;;3.74;77.48
63493;BME280;49638;47.526;10.028;2023-02-03T11:42:39;92873.88;;;3.78;77.94
63493;BME280;49638;47.526;10.028;2023-02-03T11:45:45;92879.44;;;3.75;77.70
63493;BME280;49638;47.526;10.028;2023-02-03T11:49:01;92879.44;;;3.75;78.10
63493;BME280;49638;47.526;10.028;2023-02-03T11:58:49;92852.25;;;3.62;76.48
63493;BME280;49638;47.526;10.028;2023-02-03T12:02:01;92861.69;;;3.63;77.41
63493;BME280;49638;47.526;10.028;2023-02-03T12:11:53;92853.44;;;3.51;78.79
63493;BME280;49638;47.526;10.028;2023-02-03T12:15:04;92844.03;;;3.42;78.31
63493;BME280;49638;47.526;10.028;2023-02-03T12:30:40;92821.78;;;3.23;79.34
63493;BME280;49638;47.526;10.028;2023-02-03T12:37:31;92797.41;;;3.30;78.41
63493;BME280;49638;47.526;10.028;2023-02-03T12:40:40;92792.72;;;3.18;79.69
63493;BME280;49638;47.526;10.028;2023-02-03T12:43:43;92786.03;;;3.15;80.43
63493;BME280;49638;47.526;10.028;2023-02-03T12:46:54;92782.28;;;3.18;80.11
63493;BME280;49638;47.526;10.028;2023-02-03T12:50:13;92779.84;;;3.16;79.56
63493;BME280;49638;47.526;10.028;2023-02-03T12:53:21;92779.84;;;3.16;80.38
63493;BME280;49638;47.526;10.028;2023-02-03T12:56:29;92756.91;;;3.03;80.84
63493;BME280;49638;47.526;10.028;2023-02-03T12:59:33;92768.63;;;3.07;80.87
63493;BME280;49638;47.526;10.028;2023-02-03T13:02:53;92742.59;;;2.91;80.42
63493;BME280;49638;47.526;10.028;2023-02-03T13:06:24;92764.56;;;3.05;80.15
63493;BME280;49638;47.526;10.028;2023-02-03T13:09:40;92758.22;;;2.99;80.88
63493;BME280;49638;47.526;10.028;2023-02-03T13:12:49;92757.72;;;3.04;80.88
63493;BME280;49638;47.526;10.028;2023-02-03T13:15:51;92765.13;;;3.15;81.13
63493;BME280;49638;47.526;10.028;2023-02-03T13:18:57;92765.00;;;3.17;81.01
63493;BME280;49638;47.526;10.028;2023-02-03T13:22:01;92739.34;;;3.20;80.87
63493;BME280;49638;47.526;10.028;2023-02-03T13:25:11;92740.13;;;3.21;79.30
63493;BME280;49638;47.526;10.028;2023-02-03T13:34:56;92734.56;;;3.24;80.25
63493;BME280;49638;47.526;10.028;2023-02-03T13:38:17;92721.03;;;3.20;79.29
63493;BME280;49638;47.526;10.028;2023-02-03T13:41:30;92731.50;;;3.20;79.66
63493;BME280;49638;47.526;10.028;2023-02-03T13:44:36;92735.84;;;3.28;80.35
63493;BME280;49638;47.526;10.028;2023-02-03T13:47:39;92741.19;;;3.35;80.37
63493;BME280;49638;47.526;10.028;2023-02-03T13:50:45;92739.72;;;3.32;80.31
63493;BME280;49638;47.526;10.028;2023-02-03T13:53:48;92740.91;;;3.29;80.17
63493;BME280;49638;47.526;10.028;2023-02-03T13:57:05;92728.47;;;3.31;79.08
63493;BME280;49638;47.526;10.028;2023-02-03T14:03:44;92715.47;;;3.23;80.27
63493;BME280;49638;47.526;10.028;2023-02-03T14:13:19;92760.34;;;3.27;79.56
63493;BME280;49638;47.526;10.028;2023-02-03T14:16:23;92763.78;;;3.27;80.39
63493;BME280;49638;47.526;10.028;2023-02-03T14:22:51;92771.31;;;3.22;80.25
63493;BME280;49638;47.526;10.028;2023-02-03T14:25:55;92774.22;;;3.27;80.27
63493;BME280;49638;47.526;10.028;2023-02-03T14:28:56;92773.22;;;3.28;80.54
63493;BME280;49638;47.526;10.028;2023-02-03T14:34:59;92733.31;;;3.20;80.26
63493;BME280;49638;47.526;10.028;2023-02-03T14:38:02;92745.13;;;3.30;80.07
63493;BME280;49638;47.526;10.028;2023-02-03T14:41:03;92753.25;;;3.36;80.29
63493;BME280;49638;47.526;10.028;2023-02-03T14:44:33;92733.66;;;3.40;78.95
63493;BME280;49638;47.526;10.028;2023-02-03T14:51:14;92731.88;;;3.32;80.33
63493;BME280;49638;47.526;10.028;2023-02-03T14:57:59;92770.00;;;3.26;79.76
63493;BME280;49638;47.526;10.028;2023-02-03T15:01:03;92778.91;;;3.32;80.24
63493;BME280;49638;47.526;10.028;2023-02-03T15:07:47;92788.16;;;3.20;79.98
63493;BME280;49638;47.526;10.028;2023-02-03T15:10:48;92789.31;;;3.17;80.63
63493;BME280;49638;47.526;10.028;2023-02-03T15:13:48;92782.81;;;3.13;80.97
63493;BME280;49638;47.526;10.028;2023-02-03T15:16:56;92786.22;;;3.14;80.69
63493;BME280;49638;47.526;10.028;2023-02-03T15:19:57;92751.22;;;3.00;80.95
63493;BME280;49638;47.526;10.028;2023-02-03T15:22:57;92741.84;;;3.05;81.27
63493;BME280;49638;47.526;10.028;2023-02-03T15:26:02;92740.41;;;3.03;81.03
63493;BME280;49638;47.526;10.028;2023-02-03T15:29:18;92737.47;;;3.06;81.06
63493;BME280;49638;47.526;10.028;2023-02-03T15:32:25;92736.16;;;3.02;81.54
63493;BME280;49638;47.526;10.028;2023-02-03T15:35:31;92739.66;;;2.94;81.83
63493;BME280;49638;47.526;10.028;2023-02-03T15:38:39;92759.13;;;2.83;82.23
63493;BME280;49638;47.526;10.028;2023-02-03T15:41:42;92773.78;;;2.84;82.14
63493;BME280;49638;47.526;10.028;2023-02-03T15:44:49;92781.94;;;2.90;82.00
63493;BME280;49638;47.526;10.028;2023-02-03T15:47:56;92786.50;;;2.88;82.34
63493;BME280;49638;47.526;10.028;2023-02-03T15:54:32;92814.75;;;2.84;82.44
63493;BME280;49638;47.526;10.028;2023-02-03T15:57:43;92806.63;;;2.79;82.11
63493;BME280;49638;47.526;10.028;2023-02-03T16:00:49;92826.19;;;2.83;82.43
63493;BME280;49638;47.526;10.028;2023-02-03T16:03:52;92829.28;;;2.78;82.60
63493;BME280;49638;47.526;10.028;2023-02-03T16:06:54;92827.38;;;2.72;82.84
63493;BME280;49638;47.526;10.028;2023-02-03T16:09:56;92814.81;;;2.76;82.65
63493;BME280;49638;47.526;10.028;2023-02-03T16:13:17;92801.94;;;2.66;82.74
63493;BME280;49638;47.526;10.028;2023-02-03T16:16:22;92815.13;;;2.73;82.67
63493;BME280;49638;47.526;10.028;2023-02-03T16:19:25;92806.31;;;2.74;82.70
63493;BME280;49638;47.526;10.028;2023-02-03T16:22:29;92815.94;;;2.73;82.53
63493;BME280;49638;47.526;10.028;2023-02-03T16:25:33;92806.78;;;2.77;82.47
63493;BME280;49638;47.526;10.028;2023-02-03T16:28:34;92795.06;;;2.73;82.07
63493;BME280;49638;47.526;10.028;2023-02-03T16:31:52;92806.28;;;2.82;82.34
63493;BME280;49638;47.526;10.028;2023-02-03T16:35:11;92812.31;;;2.82;82.56
63493;BME280;49638;47.526;10.028;2023-02-03T16:38:30;92814.13;;;2.82;82.28
63493;BME280;49638;47.526;10.028;2023-02-03T16:41:56;92806.44;;;2.80;82.50
63493;BME280;49638;47.526;10.028;2023-02-03T16:45:16;92805.63;;;2.80;82.34
63493;BME280;49638;47.526;10.028;2023-02-03T16:48:35;92802.69;;;2.83;82.36
63493;BME280;49638;47.526;10.028;2023-02-03T16:51:55;92793.59;;;2.79;82.10
63493;BME280;49638;47.526;10.028;2023-02-03T16:54:55;92778.41;;;2.74;82.21
63493;BME280;49638;47.526;10.028;2023-02-03T16:57:55;92782.28;;;2.87;82.11
63493;BME280;49638;47.526;10.028;2023-02-03T17:00:59;92765.03;;;2.77;81.87
63493;BME280;49638;47.526;10.028;2023-02-03T17:03:59;92755.09;;;2.73;82.04
63493;BME280;49638;47.526;10.028;2023-02-03T17:06:59;92747.22;;;2.81;82.09
63493;BME280;49638;47.526;10.028;2023-02-03T17:10:01;92772.84;;;2.77;82.73
63493;BME280;49638;47.526;10.028;2023-02-03T17:13:02;92785.56;;;2.80;82.84
63493;BME280;49638;47.526;10.028;2023-02-03T17:16:08;92788.84;;;2.82;82.52
63493;BME280;49638;47.526;10.028;2023-02-03T17:19:12;92776.59;;;2.83;82.64
63493;BME280;49638;47.526;10.028;2023-02-03T17:22:12;92764.22;;;2.77;82.79
63493;BME280;49638;47.526;10.028;2023-02-03T17:25:13;92765.50;;;2.81;82.53
63493;BME280;49638;47.526;10.028;2023-02-03T17:28:14;92773.78;;;2.84;82.82
63493;BME280;49638;47.526;10.028;2023-02-03T17:31:16;92777.41;;;2.83;82.74
63493;BME280;49638;47.526;10.028;2023-02-03T17:34:17;92773.53;;;2.71;82.83
63493;BME280;49638;47.526;10.028;2023-02-03T17:37:17;92778.53;;;2.81;82.90
63493;BME280;49638;47.526;10.028;2023-02-03T17:40:18;92768.91;;;2.81;82.64
63493;BME280;49638;47.526;10.028;2023-02-03T17:43:18;92761.41;;;2.78;83.05
63493;BME280;49638;47.526;10.028;2023-02-03T17:46:21;92741.38;;;2.79;83.13
63493;BME280;49638;47.526;10.028;2023-02-03T17:49:21;92728.53;;;2.69;83.46
63493;BME280;49638;47.526;10.028;2023-02-03T17:52:21;92731.13;;;2.69;83.51